createdAt,value
2022-09-27T00:01:39.569Z,13.70
2022-09-27T00:05:21.631Z,13.60
2022-09-27T00:09:03.953Z,13.60
2022-09-27T00:12:45.915Z,13.60
2022-09-27T00:16:30.410Z,13.60
2022-09-27T00:20:12.515Z,13.60
2022-09-27T00:23:54.528Z,13.50
2022-09-27T00:27:36.404Z,13.50
2022-09-27T00:31:21.138Z,13.50
2022-09-27T00:35:03.239Z,13.50
2022-09-27T00:38:45.052Z,13.50
2022-09-27T00:42:26.840Z,13.50
2022-09-27T00:46:08.989Z,13.50
2022-09-27T00:50:07.956Z,13.40
2022-09-27T00:53:53.334Z,13.40
2022-09-27T00:57:35.611Z,13.40
2022-09-27T01:01:17.874Z,13.40
2022-09-27T01:05:01.165Z,13.40
2022-09-27T01:08:43.023Z,13.30
2022-09-27T01:12:42.942Z,13.30
2022-09-27T01:17:03.533Z,13.30
2022-09-27T01:20:51.099Z,13.30
2022-09-27T01:24:54.740Z,13.30
2022-09-27T01:28:56.172Z,13.30
2022-09-27T01:33:03.864Z,13.20
2022-09-27T01:37:16.346Z,13.30
2022-09-27T01:41:39.560Z,13.20
2022-09-27T01:45:44.348Z,13.20
2022-09-27T01:49:39.524Z,13.20
2022-09-27T01:53:40.883Z,13.20
2022-09-27T01:57:38.815Z,13.20
2022-09-27T02:01:22.914Z,13.20
2022-09-27T02:05:07.052Z,13.20
2022-09-27T02:09:05.635Z,13.10
2022-09-27T02:13:10.288Z,13.10
2022-09-27T02:16:53.471Z,13.00
2022-09-27T02:20:47.277Z,13.00
2022-09-27T02:24:38.722Z,13.00
2022-09-27T02:28:26.281Z,13.00
2022-09-27T02:32:08.078Z,13.00
2022-09-27T02:35:49.972Z,13.00
2022-09-27T02:39:31.776Z,13.00
2022-09-27T02:43:17.277Z,13.00
2022-09-27T02:47:08.823Z,13.00
2022-09-27T02:51:05.515Z,13.00
2022-09-27T02:55:17.397Z,13.00
2022-09-27T02:59:14.240Z,13.00
2022-09-27T03:03:03.068Z,12.90
2022-09-27T03:06:47.340Z,12.90
2022-09-27T03:10:29.599Z,12.90
2022-09-27T03:14:11.596Z,12.80
2022-09-27T03:17:53.413Z,12.80
2022-09-27T03:21:35.294Z,12.80
2022-09-27T03:25:17.152Z,12.70
2022-09-27T03:28:58.964Z,12.70
2022-09-27T03:32:47.368Z,12.70
2022-09-27T03:36:29.164Z,12.70
2022-09-27T03:40:11.182Z,12.70
2022-09-27T03:43:52.988Z,12.70
2022-09-27T03:47:34.743Z,12.60
2022-09-27T03:51:16.605Z,12.60
2022-09-27T03:55:01.948Z,12.60
2022-09-27T03:58:45.186Z,12.60
2022-09-27T04:02:28.115Z,12.60
2022-09-27T04:06:09.952Z,12.60
2022-09-27T04:09:51.748Z,12.50
2022-09-27T04:13:33.572Z,12.50
2022-09-27T04:17:15.334Z,12.50
2022-09-27T04:20:57.131Z,12.40
2022-09-27T04:24:39.415Z,12.40
2022-09-27T04:28:21.163Z,12.40
2022-09-27T04:32:02.963Z,12.30
2022-09-27T04:36:03.390Z,12.30
2022-09-27T04:39:45.205Z,12.30
2022-09-27T04:43:27.073Z,12.40
2022-09-27T04:47:09.306Z,12.40
2022-09-27T04:51:02.407Z,12.40
2022-09-27T04:54:44.252Z,12.40
2022-09-27T04:58:26.052Z,12.40
2022-09-27T05:02:07.913Z,12.40
2022-09-27T05:05:49.755Z,12.40
2022-09-27T05:09:31.521Z,12.50
2022-09-27T05:13:14.926Z,12.50
2022-09-27T05:16:56.823Z,12.50
2022-09-27T05:20:39.960Z,12.50
2022-09-27T05:24:21.756Z,12.50
2022-09-27T05:28:03.819Z,12.50
2022-09-27T05:31:45.716Z,12.60
2022-09-27T05:35:27.584Z,12.50
2022-09-27T05:39:09.738Z,12.60
2022-09-27T05:42:53.019Z,12.60
2022-09-27T05:46:34.969Z,12.50
2022-09-27T05:50:16.778Z,12.50
2022-09-27T05:53:58.780Z,12.50
2022-09-27T05:57:40.616Z,12.50
2022-09-27T06:01:22.491Z,12.40
2022-09-27T06:05:04.481Z,12.40
2022-09-27T06:08:46.309Z,12.40
2022-09-27T06:12:28.170Z,12.40
2022-09-27T06:16:12.080Z,12.40
2022-09-27T06:19:53.879Z,12.50
2022-09-27T06:23:35.836Z,12.50
2022-09-27T06:27:18.900Z,12.50
2022-09-27T06:31:01.218Z,12.50
2022-09-27T06:34:43.087Z,12.50
2022-09-27T06:38:25.996Z,12.50
2022-09-27T06:42:08.378Z,12.50
2022-09-27T06:45:51.253Z,12.60
2022-09-27T06:49:33.177Z,12.60
2022-09-27T06:53:16.862Z,12.60
2022-09-27T06:57:02.361Z,12.60
2022-09-27T07:00:47.783Z,12.70
2022-09-27T07:04:29.713Z,12.70
2022-09-27T07:08:14.479Z,12.70
2022-09-27T07:11:56.252Z,12.70
2022-09-27T07:15:40.557Z,12.70
2022-09-27T07:19:22.379Z,12.70
2022-09-27T07:23:08.719Z,12.70
2022-09-27T07:26:50.644Z,12.60
2022-09-27T07:30:33.740Z,12.60
2022-09-27T07:34:19.015Z,12.50
2022-09-27T07:38:00.888Z,12.50
2022-09-27T07:41:45.838Z,12.50
2022-09-27T07:45:27.777Z,12.50
2022-09-27T07:49:09.579Z,12.60
2022-09-27T07:52:51.429Z,12.60
2022-09-27T07:56:33.511Z,12.60
2022-09-27T08:00:17.451Z,12.60
2022-09-27T08:03:59.232Z,12.80
2022-09-27T08:07:41.404Z,13.00
2022-09-27T08:11:23.190Z,13.20
2022-09-27T08:15:05.482Z,13.50
2022-09-27T08:18:47.253Z,13.70
2022-09-27T08:22:29.073Z,13.80
2022-09-27T08:26:10.920Z,13.80
2022-09-27T08:29:52.715Z,13.80
2022-09-27T08:33:40.502Z,14.00
2022-09-27T08:37:23.224Z,14.00
2022-09-27T08:41:39.795Z,14.20
2022-09-27T08:45:50.786Z,14.50
2022-09-27T08:49:41.383Z,14.80
2022-09-27T08:53:26.352Z,15.20
2022-09-27T08:57:17.676Z,15.50
2022-09-27T09:01:06.472Z,15.70
2022-09-27T09:04:53.372Z,15.80
2022-09-27T09:09:02.638Z,15.90
2022-09-27T09:12:47.444Z,16.00
2022-09-27T09:16:51.408Z,16.00
2022-09-27T09:20:49.165Z,16.10
2022-09-27T09:25:21.865Z,16.10
2022-09-27T09:29:25.253Z,16.30
2022-09-27T09:33:23.088Z,16.40
2022-09-27T09:37:12.939Z,16.70
2022-09-27T09:41:13.163Z,17.00
2022-09-27T09:45:12.880Z,17.40
2022-09-27T09:49:07.398Z,17.70
2022-09-27T09:52:54.412Z,18.30
2022-09-27T09:56:45.735Z,19.00
2022-09-27T10:00:27.533Z,20.00
2022-09-27T10:04:28.691Z,20.80
2022-09-27T10:08:21.701Z,21.50
2022-09-27T10:12:03.829Z,21.90
2022-09-27T10:16:10.283Z,22.20
2022-09-27T10:19:54.289Z,22.60
2022-09-27T10:23:37.464Z,22.80
2022-09-27T10:27:19.348Z,22.50
2022-09-27T10:31:10.638Z,21.90
2022-09-27T10:34:52.723Z,21.30
2022-09-27T10:38:36.885Z,20.80
2022-09-27T10:42:34.122Z,20.30
2022-09-27T10:46:28.651Z,19.90
2022-09-27T10:50:49.182Z,19.60
2022-09-27T10:54:30.218Z,19.30
2022-09-27T10:58:31.053Z,18.90
2022-09-27T11:02:37.184Z,18.70
2022-09-27T11:06:25.222Z,18.40
2022-09-27T11:10:36.283Z,18.30
2022-09-27T11:14:25.250Z,18.20
2022-09-27T11:18:24.711Z,18.30
2022-09-27T11:22:24.639Z,18.30
2022-09-27T11:26:54.443Z,18.30
2022-09-27T11:31:00.035Z,18.20
2022-09-27T11:34:58.227Z,18.10
2022-09-27T11:38:53.634Z,18.00
2022-09-27T11:43:01.615Z,17.80
2022-09-27T11:46:48.019Z,17.70
2022-09-27T11:51:02.508Z,17.60
2022-09-27T11:55:07.513Z,17.60
2022-09-27T11:59:04.439Z,17.70
2022-09-27T12:03:09.926Z,17.80
2022-09-27T12:07:05.748Z,17.70
2022-09-27T12:10:51.628Z,17.70
2022-09-27T12:14:33.369Z,17.90
2022-09-27T12:18:32.391Z,18.10
2022-09-27T12:22:34.701Z,18.20
2022-09-27T12:26:29.425Z,18.30
2022-09-27T12:30:13.700Z,18.40
2022-09-27T12:34:10.779Z,18.50
2022-09-27T12:37:58.364Z,19.20
2022-09-27T12:41:44.085Z,19.70
2022-09-27T12:45:49.768Z,19.70
2022-09-27T12:50:02.015Z,19.70
2022-09-27T12:53:52.196Z,20.20
2022-09-27T12:58:02.781Z,21.30
2022-09-27T13:02:11.494Z,21.90
2022-09-27T13:06:20.630Z,21.60
2022-09-27T13:10:19.233Z,21.40
2022-09-27T13:14:03.181Z,21.40
2022-09-27T13:17:44.955Z,21.20
2022-09-27T13:21:51.595Z,20.80
2022-09-27T13:25:59.776Z,20.70
2022-09-27T13:29:42.151Z,20.40
2022-09-27T13:33:52.535Z,20.10
2022-09-27T13:37:44.492Z,19.90
2022-09-27T13:41:26.327Z,19.70
2022-09-27T13:45:33.806Z,19.50
2022-09-27T13:49:23.523Z,19.40
2022-09-27T13:53:16.177Z,19.30
2022-09-27T13:56:58.055Z,19.00
2022-09-27T14:00:44.140Z,18.70
2022-09-27T14:04:49.135Z,18.60
2022-09-27T14:08:35.236Z,18.50
2022-09-27T14:12:20.912Z,18.30
2022-09-27T14:16:05.283Z,18.20
2022-09-27T14:19:50.803Z,18.20
2022-09-27T14:23:32.603Z,18.20
2022-09-27T14:27:17.469Z,18.30
2022-09-27T14:31:26.621Z,18.30
2022-09-27T14:35:33.991Z,18.40
2022-09-27T14:39:22.546Z,18.50
2022-09-27T14:43:04.484Z,18.50
2022-09-27T14:46:47.423Z,18.30
2022-09-27T14:50:30.723Z,18.20
2022-09-27T14:54:22.003Z,18.00
2022-09-27T14:58:05.171Z,17.90
2022-09-27T15:01:51.334Z,17.80
2022-09-27T15:05:34.644Z,17.70
2022-09-27T15:09:19.375Z,17.60
2022-09-27T15:13:05.186Z,17.50
2022-09-27T15:16:49.539Z,17.40
2022-09-27T15:20:35.739Z,17.20
2022-09-27T15:24:52.875Z,17.00
2022-09-27T15:28:39.299Z,16.90
2022-09-27T15:32:24.809Z,16.90
2022-09-27T15:36:10.068Z,16.90
2022-09-27T15:39:51.849Z,16.90
2022-09-27T15:43:41.255Z,16.90
2022-09-27T15:47:32.065Z,16.80
2022-09-27T15:51:53.616Z,16.90
2022-09-27T15:55:45.358Z,16.90
2022-09-27T15:59:29.256Z,17.00
2022-09-27T16:03:11.369Z,17.00
2022-09-27T16:06:56.335Z,17.00
2022-09-27T16:10:40.874Z,17.00
2022-09-27T16:14:22.646Z,16.90
2022-09-27T16:18:04.631Z,16.80
2022-09-27T16:21:48.494Z,16.70
2022-09-27T16:25:30.370Z,16.70
2022-09-27T16:29:14.137Z,16.60
2022-09-27T16:32:56.547Z,16.50
2022-09-27T16:36:39.184Z,16.50
2022-09-27T16:40:21.173Z,16.50
2022-09-27T16:44:14.135Z,16.50
2022-09-27T16:47:55.967Z,16.40
2022-09-27T16:51:56.524Z,16.40
2022-09-27T16:55:38.306Z,16.30
2022-09-27T16:59:21.095Z,16.30
2022-09-27T17:03:02.898Z,16.20
2022-09-27T17:06:44.692Z,16.20
2022-09-27T17:10:26.530Z,16.20
2022-09-27T17:14:16.170Z,16.20
2022-09-27T17:17:58.031Z,16.10
2022-09-27T17:21:40.685Z,16.00
2022-09-27T17:25:22.563Z,16.00
2022-09-27T17:29:08.002Z,15.90
2022-09-27T17:32:50.200Z,15.80
2022-09-27T17:36:35.117Z,15.80
2022-09-27T17:40:19.640Z,15.70
2022-09-27T17:44:02.350Z,15.70
2022-09-27T17:48:02.546Z,15.60
2022-09-27T17:51:52.357Z,15.50
2022-09-27T17:55:34.163Z,15.40
2022-09-27T17:59:17.521Z,15.40
2022-09-27T18:03:00.407Z,15.40
2022-09-27T18:06:44.645Z,15.30
2022-09-27T18:10:27.397Z,15.30
2022-09-27T18:14:10.720Z,15.20
2022-09-27T18:17:57.852Z,15.10
2022-09-27T18:21:40.107Z,15.10
2022-09-27T18:25:22.056Z,15.00
2022-09-27T18:29:07.104Z,14.90
2022-09-27T18:32:50.642Z,14.90
2022-09-27T18:36:32.808Z,14.80
2022-09-27T18:40:24.071Z,14.80
2022-09-27T18:44:15.459Z,14.80
2022-09-27T18:47:57.385Z,14.70
2022-09-27T18:51:49.573Z,14.60
2022-09-27T18:55:31.680Z,14.50
2022-09-27T18:59:13.521Z,14.60
2022-09-27T19:02:55.596Z,14.60
2022-09-27T19:06:38.677Z,14.50
2022-09-27T19:10:20.483Z,14.50
2022-09-27T19:14:02.824Z,14.60
2022-09-27T19:17:44.719Z,14.60
2022-09-27T19:21:28.759Z,14.50
2022-09-27T19:25:10.859Z,14.60
2022-09-27T19:28:53.334Z,14.60
2022-09-27T19:32:35.141Z,14.60
2022-09-27T19:36:18.963Z,14.60
2022-09-27T19:40:00.883Z,14.50
2022-09-27T19:43:47.496Z,14.50
2022-09-27T19:47:29.560Z,14.40
2022-09-27T19:51:19.517Z,14.40
2022-09-27T19:55:01.443Z,14.40
2022-09-27T19:58:43.996Z,14.40
2022-09-27T20:02:26.051Z,14.40
2022-09-27T20:06:10.688Z,14.40
2022-09-27T20:09:52.990Z,14.40
2022-09-27T20:13:36.112Z,14.40
2022-09-27T20:17:17.981Z,14.40
2022-09-27T20:21:02.207Z,14.40
2022-09-27T20:24:44.194Z,14.40
2022-09-27T20:28:26.614Z,14.40
2022-09-27T20:32:26.635Z,14.30
2022-09-27T20:36:21.286Z,14.30
2022-09-27T20:40:07.479Z,14.30
2022-09-27T20:43:53.202Z,14.30
2022-09-27T20:47:35.148Z,14.20
2022-09-27T20:51:17.180Z,14.30
2022-09-27T20:54:58.948Z,14.20
2022-09-27T20:58:40.773Z,14.20
2022-09-27T21:02:23.137Z,14.20
2022-09-27T21:06:05.211Z,14.20
2022-09-27T21:09:46.969Z,14.10
2022-09-27T21:13:28.722Z,14.00
2022-09-27T21:17:10.572Z,14.00
2022-09-27T21:21:05.238Z,14.00
2022-09-27T21:24:47.000Z,14.00
2022-09-27T21:28:37.225Z,13.90
2022-09-27T21:32:19.031Z,13.90
2022-09-27T21:36:01.860Z,13.80
2022-09-27T21:39:43.633Z,13.80
2022-09-27T21:43:27.324Z,13.70
2022-09-27T21:47:09.164Z,13.60
2022-09-27T21:50:51.024Z,13.50
2022-09-27T21:54:32.853Z,13.40
2022-09-27T21:58:14.635Z,13.30
2022-09-27T22:01:56.522Z,13.20
2022-09-27T22:05:45.847Z,13.10
2022-09-27T22:09:27.815Z,13.00
2022-09-27T22:13:09.672Z,13.00
2022-09-27T22:16:51.520Z,12.90
2022-09-27T22:20:33.323Z,12.80
2022-09-27T22:24:17.856Z,12.80
2022-09-27T22:27:59.629Z,12.70
2022-09-27T22:31:41.579Z,12.60
2022-09-27T22:35:23.437Z,12.60
2022-09-27T22:39:05.384Z,12.50
2022-09-27T22:42:47.443Z,12.40
2022-09-27T22:46:29.376Z,12.40
2022-09-27T22:50:14.059Z,12.30
2022-09-27T22:53:56.199Z,12.20
2022-09-27T22:57:38.129Z,12.20
2022-09-27T23:01:22.368Z,12.10
2022-09-27T23:05:04.514Z,12.00
2022-09-27T23:08:47.448Z,12.00
2022-09-27T23:12:29.215Z,11.90
2022-09-27T23:16:13.548Z,11.90
2022-09-27T23:19:55.446Z,11.80
2022-09-27T23:23:42.513Z,11.80
2022-09-27T23:27:44.450Z,11.70
2022-09-27T23:40:27.733Z,11.60
2022-09-27T23:44:09.607Z,11.50
2022-09-27T23:47:51.385Z,11.40
2022-09-27T23:51:33.346Z,11.30
2022-09-27T23:55:15.343Z,11.20
2022-09-27T23:58:57.979Z,11.10
